Time,TemperatureF,DewpointF,PressureIn,WindDirection,WindDirectionDegrees,WindSpeedMPH,WindSpeedGustMPH,Humidity,HourlyPrecipIn,Conditions,Clouds,dailyrainin,SolarRadiationWatts/m^2,SoftwareType,DateUTC
2013-03-29 00:03:00,22.0,15.0,-100.00,North,350,1.0,2.0,74,0.00,,,-99.99,0.000000,,2013-03-29 05:03:00,
2013-03-29 00:10:00,20.0,16.0,-100.00,SE,139,1.0,1.0,83,0.00,,,-99.99,0.000000,,2013-03-29 05:10:00,
2013-03-29 00:33:00,20.0,16.0,-100.00,SE,139,1.0,1.0,83,0.00,,,-99.99,0.000000,,2013-03-29 05:33:00,
2013-03-29 00:43:00,20.0,16.0,-100.00,SE,139,1.0,1.0,83,0.00,,,-99.99,0.000000,,2013-03-29 05:43:00,
2013-03-29 00:52:00,20.0,16.0,-100.00,SE,139,1.0,1.0,83,0.00,,,-99.99,0.000000,,2013-03-29 05:52:00,
2013-03-29 01:02:00,20.0,16.0,-100.00,SE,139,1.0,1.0,83,0.00,,,-99.99,0.000000,,2013-03-29 06:02:00,
2013-03-29 01:10:00,18.0,15.0,-100.00,North,10,0.0,0.0,88,0.00,,,-99.99,0.000000,,2013-03-29 06:10:00,
2013-03-29 01:42:00,18.0,15.0,-100.00,North,10,0.0,0.0,88,0.00,,,-99.99,0.000000,,2013-03-29 06:42:00,
2013-03-29 01:52:00,18.0,15.0,-100.00,North,10,0.0,0.0,88,0.00,,,-99.99,0.000000,,2013-03-29 06:52:00,
2013-03-29 02:03:00,18.0,15.0,-100.00,North,10,0.0,0.0,88,0.00,,,-99.99,0.000000,,2013-03-29 07:03:00,
2013-03-29 02:10:00,17.0,15.0,-100.00,ESE,116,0.0,1.0,90,0.00,,,-99.99,0.000000,,2013-03-29 07:10:00,
2013-03-29 02:32:00,17.0,15.0,-100.00,ESE,116,0.0,1.0,90,0.00,,,-99.99,0.000000,,2013-03-29 07:32:00,
2013-03-29 02:42:00,17.0,15.0,-100.00,ESE,116,0.0,1.0,90,0.00,,,-99.99,0.000000,,2013-03-29 07:42:00,
2013-03-29 02:52:00,17.0,15.0,-100.00,ESE,116,0.0,1.0,90,0.00,,,-99.99,0.000000,,2013-03-29 07:52:00,
2013-03-29 03:02:00,17.0,15.0,-100.00,ESE,116,0.0,1.0,90,0.00,,,-99.99,0.000000,,2013-03-29 08:02:00,
2013-03-29 03:10:00,15.0,13.0,-100.00,NNW,346,0.0,1.0,92,0.00,,,-99.99,0.000000,,2013-03-29 08:10:00,
2013-03-29 03:32:00,15.0,13.0,-100.00,NNW,346,0.0,1.0,92,0.00,,,-99.99,0.000000,,2013-03-29 08:32:00,
2013-03-29 03:42:00,15.0,13.0,-100.00,NNW,346,0.0,1.0,92,0.00,,,-99.99,0.000000,,2013-03-29 08:42:00,
2013-03-29 03:53:00,15.0,13.0,-100.00,NNW,346,0.0,1.0,92,0.00,,,-99.99,0.000000,,2013-03-29 08:53:00,
2013-03-29 04:02:00,15.0,13.0,-100.00,NNW,346,0.0,1.0,92,0.00,,,-99.99,0.000000,,2013-03-29 09:02:00,
2013-03-29 04:10:00,16.0,14.0,-100.00,SW,216,1.0,7.0,92,0.00,,,-99.99,0.000000,,2013-03-29 09:10:00,
2013-03-29 04:43:00,16.0,14.0,-100.00,SW,216,1.0,7.0,92,0.00,,,-99.99,0.000000,,2013-03-29 09:43:00,
2013-03-29 04:52:00,16.0,14.0,-100.00,SW,216,1.0,7.0,92,0.00,,,-99.99,0.000000,,2013-03-29 09:52:00,
2013-03-29 05:03:00,16.0,14.0,-100.00,SW,216,1.0,7.0,92,0.00,,,-99.99,0.000000,,2013-03-29 10:03:00,
2013-03-29 05:10:00,14.0,12.0,-100.00,North,355,0.0,1.0,90,0.00,,,-99.99,0.000000,,2013-03-29 10:10:00,
2013-03-29 05:33:00,14.0,12.0,-100.00,North,355,0.0,1.0,90,0.00,,,-99.99,0.000000,,2013-03-29 10:33:00,
2013-03-29 05:42:00,14.0,12.0,-100.00,North,355,0.0,1.0,90,0.00,,,-99.99,0.000000,,2013-03-29 10:42:00,
2013-03-29 05:53:00,14.0,12.0,-100.00,North,355,0.0,1.0,90,0.00,,,-99.99,0.000000,,2013-03-29 10:53:00,
2013-03-29 06:03:00,14.0,12.0,-100.00,North,355,0.0,1.0,90,0.00,,,-99.99,0.000000,,2013-03-29 11:03:00,
2013-03-29 06:10:00,12.0,10.0,-100.00,NNE,12,0.0,0.0,90,0.00,,,-99.99,0.000000,,2013-03-29 11:10:00,
2013-03-29 06:33:00,12.0,10.0,-100.00,NNE,12,0.0,0.0,90,0.00,,,-99.99,0.000000,,2013-03-29 11:33:00,
2013-03-29 06:43:00,12.0,10.0,-100.00,NNE,12,0.0,0.0,90,0.00,,,-99.99,0.000000,,2013-03-29 11:43:00,
2013-03-29 06:53:00,12.0,10.0,-100.00,NNE,12,0.0,0.0,90,0.00,,,-99.99,0.000000,,2013-03-29 11:53:00,
2013-03-29 07:03:00,12.0,10.0,-100.00,NNE,12,0.0,0.0,90,0.00,,,-99.99,0.000000,,2013-03-29 12:03:00,
2013-03-29 07:10:00,11.0,9.0,-100.00,NE,38,0.0,0.0,90,0.00,,,-99.99,3.000000,,2013-03-29 12:10:00,
2013-03-29 07:33:00,11.0,9.0,-100.00,NE,38,0.0,0.0,90,0.00,,,-99.99,3.000000,,2013-03-29 12:33:00,
2013-03-29 07:43:00,11.0,9.0,-100.00,NE,38,0.0,0.0,90,0.00,,,-99.99,3.000000,,2013-03-29 12:43:00,
2013-03-29 07:53:00,11.0,9.0,-100.00,NE,38,0.0,0.0,90,0.00,,,-99.99,3.000000,,2013-03-29 12:53:00,
2013-03-29 08:03:00,11.0,9.0,-100.00,NE,38,0.0,0.0,90,0.00,,,-99.99,3.000000,,2013-03-29 13:03:00,
2013-03-29 08:10:00,15.0,12.0,-100.00,ENE,77,0.0,0.0,89,0.00,,,-99.99,50.000000,,2013-03-29 13:10:00,
2013-03-29 08:33:00,15.0,12.0,-100.00,ENE,77,0.0,0.0,89,0.00,,,-99.99,50.000000,,2013-03-29 13:33:00,
2013-03-29 08:43:00,15.0,12.0,-100.00,ENE,77,0.0,0.0,89,0.00,,,-99.99,50.000000,,2013-03-29 13:43:00,
2013-03-29 08:53:00,15.0,12.0,-100.00,ENE,77,0.0,0.0,89,0.00,,,-99.99,50.000000,,2013-03-29 13:53:00,
2013-03-29 09:03:00,15.0,12.0,-100.00,ENE,77,0.0,0.0,89,0.00,,,-99.99,50.000000,,2013-03-29 14:03:00,
2013-03-29 09:10:00,24.0,21.0,-100.00,ENE,74,0.0,0.0,88,0.00,,,-99.99,39.000000,,2013-03-29 14:10:00,
2013-03-29 09:33:00,24.0,21.0,-100.00,ENE,74,0.0,0.0,88,0.00,,,-99.99,39.000000,,2013-03-29 14:33:00,
2013-03-29 09:42:00,24.0,21.0,-100.00,ENE,74,0.0,0.0,88,0.00,,,-99.99,39.000000,,2013-03-29 14:42:00,
2013-03-29 09:53:00,24.0,21.0,-100.00,ENE,74,0.0,0.0,88,0.00,,,-99.99,39.000000,,2013-03-29 14:53:00,
2013-03-29 10:02:00,24.0,21.0,-100.00,ENE,74,0.0,0.0,88,0.00,,,-99.99,39.000000,,2013-03-29 15:02:00,
2013-03-29 10:10:00,39.0,20.0,-100.00,WNW,299,3.0,7.0,47,0.00,,,-99.99,284.000000,,2013-03-29 15:10:00,
2013-03-29 10:33:00,39.0,20.0,-100.00,WNW,299,3.0,7.0,47,0.00,,,-99.99,284.000000,,2013-03-29 15:33:00,
2013-03-29 10:43:00,39.0,20.0,-100.00,WNW,299,3.0,7.0,47,0.00,,,-99.99,284.000000,,2013-03-29 15:43:00,
2013-03-29 10:53:00,39.0,20.0,-100.00,WNW,299,3.0,7.0,47,0.00,,,-99.99,284.000000,,2013-03-29 15:53:00,
2013-03-29 11:03:00,39.0,20.0,-100.00,WNW,299,3.0,7.0,47,0.00,,,-99.99,284.000000,,2013-03-29 16:03:00,
2013-03-29 11:10:00,46.0,16.0,-100.00,SW,220,4.0,9.0,29,0.00,,,-99.99,489.000000,,2013-03-29 16:10:00,
2013-03-29 11:33:00,46.0,16.0,-100.00,SW,220,4.0,9.0,29,0.00,,,-99.99,489.000000,,2013-03-29 16:33:00,
2013-03-29 11:43:00,46.0,16.0,-100.00,SW,220,4.0,9.0,29,0.00,,,-99.99,489.000000,,2013-03-29 16:43:00,
2013-03-29 11:53:00,46.0,16.0,-100.00,SW,220,4.0,9.0,29,0.00,,,-99.99,489.000000,,2013-03-29 16:53:00,
2013-03-29 12:03:00,46.0,16.0,-100.00,SW,220,4.0,9.0,29,0.00,,,-99.99,489.000000,,2013-03-29 17:03:00,
2013-03-29 12:10:00,49.0,16.0,-100.00,WSW,255,5.0,10.0,26,0.00,,,-99.99,633.000000,,2013-03-29 17:10:00,
2013-03-29 12:43:00,49.0,16.0,-100.00,WSW,255,5.0,10.0,26,0.00,,,-99.99,633.000000,,2013-03-29 17:43:00,
2013-03-29 12:53:00,49.0,16.0,-100.00,WSW,255,5.0,10.0,26,0.00,,,-99.99,633.000000,,2013-03-29 17:53:00,
2013-03-29 13:02:00,49.0,16.0,-100.00,WSW,255,5.0,10.0,26,0.00,,,-99.99,633.000000,,2013-03-29 18:02:00,
2013-03-29 13:10:00,53.0,15.0,-100.00,West,260,4.0,10.0,22,0.00,,,0.00,771.000000,,2013-03-29 18:10:00,
2013-03-29 13:43:00,53.0,15.0,-100.00,West,260,4.0,10.0,22,0.00,,,0.00,771.000000,,2013-03-29 18:43:00,
2013-03-29 13:53:00,53.0,15.0,-100.00,West,260,4.0,10.0,22,0.00,,,0.00,771.000000,,2013-03-29 18:53:00,
2013-03-29 14:02:00,53.0,15.0,-100.00,West,260,4.0,10.0,22,0.00,,,0.00,771.000000,,2013-03-29 19:02:00,
2013-03-29 14:10:00,53.0,14.0,-100.00,WNW,291,4.0,11.0,21,0.00,,,0.00,751.000000,,2013-03-29 19:10:00,
2013-03-29 14:33:00,53.0,14.0,-100.00,WNW,291,4.0,11.0,21,0.00,,,0.00,751.000000,,2013-03-29 19:33:00,
2013-03-29 14:43:00,53.0,14.0,-100.00,WNW,291,4.0,11.0,21,0.00,,,0.00,751.000000,,2013-03-29 19:43:00,
2013-03-29 14:53:00,53.0,14.0,-100.00,WNW,291,4.0,11.0,21,0.00,,,0.00,751.000000,,2013-03-29 19:53:00,
2013-03-29 15:02:00,53.0,14.0,-100.00,WNW,291,4.0,11.0,21,0.00,,,0.00,751.000000,,2013-03-29 20:02:00,
2013-03-29 15:10:00,54.0,16.0,-100.00,SW,232,4.0,10.0,22,0.00,,,0.00,677.000000,,2013-03-29 20:10:00,
2013-03-29 15:42:00,54.0,16.0,-100.00,SW,232,4.0,10.0,22,0.00,,,0.00,677.000000,,2013-03-29 20:42:00,
2013-03-29 15:52:00,54.0,16.0,-100.00,SW,232,4.0,10.0,22,0.00,,,0.00,677.000000,,2013-03-29 20:52:00,
2013-03-29 16:02:00,54.0,16.0,-100.00,SW,232,4.0,10.0,22,0.00,,,0.00,677.000000,,2013-03-29 21:02:00,
2013-03-29 16:10:00,55.0,17.0,-100.00,WSW,255,4.0,10.0,22,0.00,,,0.00,556.000000,,2013-03-29 21:10:00,
2013-03-29 16:43:00,55.0,17.0,-100.00,WSW,255,4.0,10.0,22,0.00,,,0.00,556.000000,,2013-03-29 21:43:00,
2013-03-29 16:53:00,55.0,17.0,-100.00,WSW,255,4.0,10.0,22,0.00,,,0.00,556.000000,,2013-03-29 21:53:00,
2013-03-29 17:03:00,55.0,17.0,-100.00,WSW,255,4.0,10.0,22,0.00,,,0.00,556.000000,,2013-03-29 22:03:00,
2013-03-29 17:10:00,53.0,17.0,-100.00,West,280,5.0,11.0,24,0.00,,,0.00,402.000000,,2013-03-29 22:10:00,
2013-03-29 17:34:00,53.0,17.0,-100.00,West,280,5.0,11.0,24,0.00,,,0.00,402.000000,,2013-03-29 22:34:00,
2013-03-29 17:43:00,53.0,17.0,-100.00,West,280,5.0,11.0,24,0.00,,,0.00,402.000000,,2013-03-29 22:43:00,
2013-03-29 17:54:00,53.0,17.0,-100.00,West,280,5.0,11.0,24,0.00,,,0.00,402.000000,,2013-03-29 22:54:00,
2013-03-29 18:03:00,53.0,17.0,-100.00,West,280,5.0,11.0,24,0.00,,,0.00,402.000000,,2013-03-29 23:03:00,
2013-03-29 18:10:00,52.0,18.0,-100.00,WSW,238,3.0,10.0,26,0.00,,,0.00,228.000000,,2013-03-29 23:10:00,
2013-03-29 18:43:00,52.0,18.0,-100.00,WSW,238,3.0,10.0,26,0.00,,,0.00,228.000000,,2013-03-29 23:43:00,
2013-03-29 18:52:00,52.0,18.0,-100.00,WSW,238,3.0,10.0,26,0.00,,,0.00,228.000000,,2013-03-29 23:52:00,
2013-03-29 19:03:00,52.0,18.0,-100.00,WSW,238,3.0,10.0,26,0.00,,,0.00,228.000000,,2013-03-30 00:03:00,
2013-03-29 19:10:00,43.0,16.0,-100.00,WSW,239,3.0,9.0,33,0.00,,,-99.99,45.000000,,2013-03-30 00:10:00,
2013-03-29 19:33:00,43.0,16.0,-100.00,WSW,239,3.0,9.0,33,0.00,,,-99.99,45.000000,,2013-03-30 00:33:00,
2013-03-29 19:43:00,43.0,16.0,-100.00,WSW,239,3.0,9.0,33,0.00,,,-99.99,45.000000,,2013-03-30 00:43:00,
2013-03-29 19:53:00,43.0,16.0,-100.00,WSW,239,3.0,9.0,33,0.00,,,-99.99,45.000000,,2013-03-30 00:53:00,
2013-03-29 20:02:00,43.0,16.0,-100.00,WSW,239,3.0,9.0,33,0.00,,,-99.99,45.000000,,2013-03-30 01:02:00,
2013-03-29 20:10:00,35.0,19.0,-100.00,SSW,201,1.0,5.0,52,0.00,,,0.00,2.000000,,2013-03-30 01:10:00,
2013-03-29 20:33:00,35.0,19.0,-100.00,SSW,201,1.0,5.0,52,0.00,,,0.00,2.000000,,2013-03-30 01:33:00,
2013-03-29 20:43:00,35.0,19.0,-100.00,SSW,201,1.0,5.0,52,0.00,,,0.00,2.000000,,2013-03-30 01:43:00,
2013-03-29 20:53:00,35.0,19.0,-100.00,SSW,201,1.0,5.0,52,0.00,,,0.00,2.000000,,2013-03-30 01:53:00,
2013-03-29 21:03:00,35.0,19.0,-100.00,SSW,201,1.0,5.0,52,0.00,,,0.00,2.000000,,2013-03-30 02:03:00,
2013-03-29 21:10:00,30.0,20.0,-100.00,SSW,197,1.0,3.0,66,0.00,,,0.00,0.000000,,2013-03-30 02:10:00,
2013-03-29 21:43:00,30.0,20.0,-100.00,SSW,197,1.0,3.0,66,0.00,,,0.00,0.000000,,2013-03-30 02:43:00,
2013-03-29 21:53:00,30.0,20.0,-100.00,SSW,197,1.0,3.0,66,0.00,,,0.00,0.000000,,2013-03-30 02:53:00,
2013-03-29 22:02:00,30.0,20.0,-100.00,SSW,197,1.0,3.0,66,0.00,,,0.00,0.000000,,2013-03-30 03:02:00,
2013-03-29 22:10:00,31.0,23.0,-100.00,SSW,198,2.0,4.0,72,0.00,,,0.00,0.000000,,2013-03-30 03:10:00,
2013-03-29 22:43:00,31.0,23.0,-100.00,SSW,198,2.0,4.0,72,0.00,,,0.00,0.000000,,2013-03-30 03:43:00,
2013-03-29 22:53:00,31.0,23.0,-100.00,SSW,198,2.0,4.0,72,0.00,,,0.00,0.000000,,2013-03-30 03:53:00,
2013-03-29 23:02:00,31.0,23.0,-100.00,SSW,198,2.0,4.0,72,0.00,,,0.00,0.000000,,2013-03-30 04:02:00,
2013-03-29 23:10:00,29.0,22.0,-100.00,SSW,213,2.0,5.0,74,0.00,,,0.00,0.000000,,2013-03-30 04:10:00,
2013-03-29 23:33:00,29.0,22.0,-100.00,SSW,213,2.0,5.0,74,0.00,,,0.00,0.000000,,2013-03-30 04:33:00,
2013-03-29 23:43:00,29.0,22.0,-100.00,SSW,213,2.0,5.0,74,0.00,,,0.00,0.000000,,2013-03-30 04:43:00,
2013-03-29 23:53:00,29.0,22.0,-100.00,SSW,213,2.0,5.0,74,0.00,,,0.00,0.000000,,2013-03-30 04:53:00,